Tiempo atmosférico en la estación meteorológica de Calamocha, Teruel (890 m.)



Fecha
DESCASC
Temp. máxima en grados centígrados (hora)
DESCASC
Temp. mínima en grados centígrados (hora)
DESCASC
Temp. media en grados centígrados
DESCASC
Racha de viento máxima en m/sg (hora)
DESCASC
Velocidad máxima media en intervalos de 10 minutos(hora)
DESCASC
Precipitaciones diarias en mm
DESCASC
Precipitaciones de 00:00 a 06:00 en mm
DESCASC
Precipitaciones de 06:00 a 12:00 en mm
DESCASC
Precipitaciones de 12:00 a 18:00 en mm
DESCASC
Precipitaciones de 18:00 a 24:00 en mm
DESCASC
18-01-2018 14.4 (17:10) -3.4 (06:50) 5.5 4.72 (07:50) 3.61 (07:50) 0 0 0 0 0
17-01-2018 11.9 (14:00) -0.8 (23:59) 5.5 10.56 (14:20) 4.17 (13:10) 0 0 0 0 0
16-01-2018 13.5 (15:40) 0 (03:20) 6.8 9.17 (13:30) 4.72 (13:30) 0 0 0 0 0
15-01-2018 8.3 (16:00) 0 (09:00) 4.2 6.11 (15:30) 3.06 (15:30) 0 0 0 0 0
14-01-2018 6.5 (14:20) 1.4 (00:00) 3.9 8.33 (02:10) 3.61 (03:20) 0 0 0 0 0
13-01-2018 6.8 (16:40) -1.9 (-00:0) 2.5 6.39 (18:30) 4.17 (19:20) 0.8 0 0 0 0.8
12-01-2018 7.6 (14:40) -0.7 (-00:0) 3.4 8.33 (14:10) 4.17 (14:00) 0 0 0 0 0
11-01-2018 6.5 (14:30) 0.8 (00:00) 3.7 15 (13:30) 7.78 (11:50) 1.8 0 0 0 1.8
10-01-2018 8.4 (13:00) 1.8 (00:00) 5.1 13.61 (23:50) 6.94 (20:40) 1.6 0.2 0 0 1.4
09-01-2018 5.6 (15:30) -6.2 (-00:0) -0.3 11.67 (17:20) 5.83 (17:20) 0.2 0 0 0 0.2
08-01-2018 8.4 (15:50) -5.4 (-00:0) 1.5 3.89 (17:00) 2.22 (16:40) 0 0 0 0 0
07-01-2018 6.7 (15:40) -2.5 (-00:0) 2.1 8.33 (13:40) 4.72 (13:10) 0.2 0 0.2 0 0
06-01-2018 8.4 (00:30) 0.3 (00:00) 4.3 10.56 (16:40) 8.06 (16:40) 4.6 0 0.2 0 4.4
05-01-2018 12.6 (15:50) 5.3 (00:00) 9 13.06 (13:20) 7.78 (13:30) 0 0 0 0 0
04-01-2018 13.6 (15:10) 9.3 (23:59) 11.5 8.89 (16:20) 4.44 (14:20) 0 0 0 0 0
03-01-2018 14.6 (15:50) 8.7 (00:00) 11.7 10 (19:30) 4.17 (19:30) 0 0 0 0 0
02-01-2018 13.6 (14:10) 6.2 (00:00) 9.9 12.5 (13:10) 6.67 (13:10) 0 0 0 0 0
01-01-2018 11 (15:50) -0.2 (00:00) 5.4 11.67 (00:30) 5.56 (15:10) 0 0 0 0 0
31-12-2017 11.6 (16:10) -1.7 (-00:0) 5 13.06 (18:30) 7.22 (17:30) 1 0 0 0 1
30-12-2017 14.6 (15:30) 1.9 (00:00) 8.3 9.44 (12:20) 5.83 (01:50) 0 0 0 0 0
29-12-2017 14.9 (15:00) 0.8 (00:00) 7.8 11.67 (15:10) 6.67 (15:10) 0 0 0 0 0
28-12-2017 11.3 (17:10) 3.6 (00:00) 7.5 13.06 (12:30) 6.39 (14:10) 0 0 0 0 0
27-12-2017 7.2 (03:50) 2.2 (00:00) 4.7 21.11 (04:20) 11.67 (03:40) 4 3.8 0 0.2 0
26-12-2017 7.3 (12:10) 3.3 (00:00) 5.3 11.39 (23:20) 5.56 (23:50) 0 0 0 0 0
25-12-2017 13 (15:30) -7.1 (-00:0) 3 8.06 (16:30) 3.33 (16:20) 0 0 0 0 0
24-12-2017 13.8 (16:00) -5.2 (-00:0) 4.3 4.72 (13:00) 3.61 (12:40) 0 0 0 0 0

Gráficas

Temp. máximas Temp. mínimas Temp. medias Precipitaciones Rachas de viento máximas Velocidades máximas media en intervalos de 10 minutos

Datos horarios

Fecha y hora oficial Temperatura (ºC) Velocidad del viento (km/h) Dirección del viento Racha (km/h) Dirección de racha Precipitación (mm) Presión (hPa) Tendencia (hPa) Humedad (%)
2018-01-22 23:00:00 2.9 2 Sur 9 Sudoeste 0 926.7 0.7 88
2018-01-22 22:00:00 3.8 4 Sur 8 Sur 0 926.5 1.1 83
2018-01-22 21:00:00 4.7 5 Sudeste 7 Sudeste 0 926.5 1.6 81
2018-01-22 20:00:00 6.6 0 Calma 4 Noroeste 0 926 1.6 76
2018-01-22 19:00:00 8.8 3 Noroeste 10 Norte 0 925.4 1.1 69
2018-01-22 18:00:00 11.1 5 Noroeste 17 Noroeste 0 924.9 0.4 61
2018-01-22 17:00:00 13.5 7 Noroeste 14 Noroeste 0 924.4 -0.4 55
2018-01-22 16:00:00 13.6 6 Noroeste 14 Oeste 0 924.3 -1.5 54
2018-01-22 15:00:00 12.2 7 Norte 15 Nordeste 0 924.5 -1.9 57
2018-01-22 14:00:00 11.8 3 Sudoeste 12 Noroeste 0 924.8 -2.1 59
2018-01-22 13:00:00 10.7 4 Norte 15 Noroeste 0 925.8 -0.8 63
2018-01-22 12:00:00 9.3 8 Noroeste 17 Noroeste 0 926.4 0.3 68
2018-01-22 11:00:00 8 6 Noroeste 15 Noroeste 0 926.9 0.9 77
2018-01-22 10:00:00 5.8 3 Sudoeste 9 Sudoeste 0 926.6 0.7 88
2018-01-22 09:00:00 5.1 6 Sudoeste 10 Sudoeste 0 926.1 0.1 89
2018-01-22 08:00:00 5.9 7 Sudoeste 13 Oeste 0 926 0 87
2018-01-22 07:00:00 6.5 7 Oeste 12 Noroeste 0 925.9 -0.5 87
2018-01-22 06:00:00 6.4 5 Oeste 17 Oeste 0 926 -0.5 88
2018-01-22 05:00:00 6.7 8 Oeste 18 Oeste 0 926 -0.7 88
2018-01-22 04:00:00 6.9 6 Oeste 14 Oeste 0 926.4 -0.6 88
2018-01-22 03:00:00 7.1 7 Oeste 19 Oeste 0 926.5 -0.6 88
2018-01-22 02:00:00 7.4 8 Oeste 15 Oeste 0 926.7 -0.4 87
2018-01-22 01:00:00 7.1 3 Oeste 14 Oeste 0 927 -0.1 89
2018-01-22 00:00:00 6.4 3 Sur 16 Noroeste 0 927.1 0.4 88
2018-01-21 23:00:00 7.1 5 Noroeste 20 Oeste 0 927.1 0.8 88
2018-01-21 22:00:00 7 6 Noroeste 13 Noroeste 0 927.1 1.6 87
2018-01-21 21:00:00 7 4 Nordeste 16 Oeste 0 926.7 1.8 84
2018-01-21 20:00:00 8.7 5 Noroeste 14 Noroeste 0 926.3 1.8 78
2018-01-21 19:00:00 10.3 4 Norte 20 Noroeste 0 925.5 1.2 73
2018-01-21 18:00:00 12.5 11 Noroeste 28 Noroeste 0 924.9 0.6 66
2018-01-21 17:00:00 13.9 9 Noroeste 23 Noroeste 0 924.5 0 62
2018-01-21 16:00:00 14.7 13 Noroeste 28 Noroeste 0 924.3 -0.8 59
2018-01-21 15:00:00 14 10 Norte 27 Noroeste 0 924.3 -1.8 61
2018-01-21 14:00:00 13.6 9 Norte 21 Norte 0 924.5 -1.9 63
2018-01-21 13:00:00 12 8 Noroeste 17 Norte 0 925.1 -0.7 69
2018-01-21 12:00:00 10.1 5 Noroeste 12 Oeste 0 926.1 0.6 76
2018-01-21 11:00:00 8.3 4 Noroeste 17 Noroeste 0 926.4 1.4 82
2018-01-21 10:00:00 7.7 4 Oeste 11 Noroeste 0 925.8 1.4 85
2018-01-21 09:00:00 7.2 4 Oeste 12 Sudeste 0 925.5 1.4 86
2018-01-21 08:00:00 7.1 5 Norte 18 Noroeste 0 925 1 86
2018-01-21 07:00:00 7.1 4 Noroeste 17 Norte 0 924.4 0.8 85
2018-01-21 06:00:00 7.4 10 Noroeste 28 Noroeste 0 924.1 0.5 83
2018-01-21 05:00:00 8.2 15 Noroeste 35 Noroeste 0 924 0.5 80
2018-01-21 04:00:00 8.1 14 Noroeste 38 Noroeste 0 923.6 0.2 80
2018-01-21 03:00:00 7.9 15 Noroeste 42 Oeste 0 923.6 -0.4 80
2018-01-21 02:00:00 8 17 Noroeste 43 Noroeste 0 923.5 -0.1 77
2018-01-21 01:00:00 8.2 22 Noroeste 39 Oeste 0 923.4 0.1 75
2018-01-21 00:00:00 8.2 11 Noroeste 28 Noroeste 0 924 1.1 71
2018-01-20 23:00:00 8.7 14 Noroeste 28 Oeste 0 923.6 0.8 68
2018-01-20 22:00:00 8.5 12 Noroeste 25 Noroeste 0 923.3 1.4 67
2018-01-20 21:00:00 8.9 16 Noroeste 31 Oeste 0 922.9 1.6 61
2018-01-20 20:00:00 8.6 8 Noroeste 21 Noroeste 0 922.8 2.1 55
2018-01-20 19:00:00 10.2 9 Noroeste 25 Noroeste 0 921.9 1.6 48
2018-01-20 18:00:00 11.5 11 Noroeste 30 Noroeste 0 921.3 0.7 42
2018-01-20 17:00:00 14.1 14 Noroeste 36 Noroeste 0 920.7 -0.3 34
2018-01-20 16:00:00 14.4 16 Noroeste 36 Noroeste 0 920.3 -1.5 32
2018-01-20 15:00:00 13.8 19 Noroeste 40 Noroeste 0 920.6 -2.1 35
2018-01-20 14:00:00 13.8 15 Noroeste 33 Noroeste 0 921 -2.1 32
2018-01-20 13:00:00 12.3 16 Noroeste 33 Noroeste 0 921.8 -1.7 33
2018-01-20 12:00:00 9.1 5 Sudoeste 10 Sudeste 0 922.7 -0.6 59
2018-01-20 11:00:00 5.3 4 Sur 9 Sudeste 0 923.1 0.4 78
2018-01-20 10:00:00 1 3 Sudeste 10 Sur 0 923.5 1 93
2018-01-20 09:00:00 -2.2 2 Este 7 Sur 0 923.3 1 94
2018-01-20 08:00:00 -2.1 3 Sudeste 8 Sur 0 922.7 0.7 94
2018-01-20 07:00:00 -3 3 Sur 7 Sur 0 922.5 -0.1 97
2018-01-20 06:00:00 -3.3 2 Sur 6 Sur 0 922.3 -0.3 94
2018-01-20 05:00:00 -2.8 2 Sudeste 3 Sur 0 922 -0.5 95
2018-01-20 04:00:00 -2.5 0 Calma 5 Este 0 922.6 -0.1 95
2018-01-20 03:00:00 -2 3 Nordeste 4 Nordeste 0 922.6 0.2 94
2018-01-20 02:00:00 -1.2 0 Calma 4 Oeste 0 922.5 0.2 94
2018-01-20 01:00:00 -0.4 2 Sudoeste 4 Nordeste 0 922.7 0.4 93
2018-01-20 00:00:00 0.8 4 Sudeste 10 Sudeste 0 922.4 0.6 90
2018-01-19 23:00:00 2.5 4 Sur 6 Norte 0 922.3 1.4 89
2018-01-19 22:00:00 4.9 3 Oeste 14 Norte 0 922.3 2.1 85
2018-01-19 21:00:00 6.3 9 Norte 29 Nordeste 0 921.8 2.6 83
2018-01-19 20:00:00 6.7 12 Nordeste 34 Nordeste 0 920.9 2.6 86
2018-01-19 19:00:00 7.7 14 Norte 30 Nordeste 0 920.2 1.8 85
2018-01-19 18:00:00 8.9 9 Nordeste 26 Nordeste 0 919.2 0.9 77
2018-01-19 17:00:00 12 9 Noroeste 20 Norte 0 918.3 -0.6 57
2018-01-19 16:00:00 12.1 10 Noroeste 24 Noroeste 0 918.4 -0.7 50
2018-01-19 15:00:00 11.7 9 Norte 24 Noroeste 0 918.3 -1.5 53
2018-01-19 14:00:00 11.4 8 Noroeste 23 Norte 0 918.9 -1.1 55
2018-01-19 13:00:00 9 6 Sur 13 Sur 0 919.1 -0.6 63
2018-01-19 12:00:00 5.5 5 Sudoeste 12 Sur 0 919.8 0.4 73
2018-01-19 11:00:00 2.1 7 Sur 14 Sur 0 920 0.7 84
2018-01-19 10:00:00 -1.5 3 Sudeste 8 Sur 0 919.7 0.6 92
2018-01-19 09:00:00 -3.6 3 Sur 5 Sur 0 919.4 0.6 94
2018-01-19 08:00:00 -3.6 0 Calma 5 Sur 0 919.3 0.5 93
2018-01-19 07:00:00 -3.1 3 Sudeste 5 Sudeste 0 919.1 -0.3 92
2018-01-19 06:00:00 -3 2 Oeste 3 Este 0 918.8 -0.5 91
2018-01-19 05:00:00 -2.5 2 Noroeste 11 Sudeste 0 918.8 -0.7 90
2018-01-19 04:00:00 -2.4 9 Sudeste 11 Sudeste 0 919.4 -0.5 91
2018-01-19 03:00:00 -2 4 Oeste 6 Sur 0 919.3 -0.7 92
2018-01-19 02:00:00 -2 2 Noroeste 4 Norte 0 919.5 -0.3 91
2018-01-19 01:00:00 -1.6 0 Calma 5 Nordeste 0 919.9 0.1 89
2018-01-19 00:00:00 -0.6 4 Este 9 Sudeste 0 920 0.1 86
2018-01-18 23:00:00 0.3 3 Sur 5 Sur 0 919.8 0.4 81
2018-01-18 22:00:00 1.4 2 Norte 8 Sur 0 919.8 0.6 80
2018-01-18 21:00:00 3.1 5 Sur 8 Sur 0 919.9 0.9 73
2018-01-18 20:00:00 5 2 Sur 6 Nordeste 0 919.4 0 67
2018-01-18 19:00:00 7.3 0 Calma 4 Norte 0 919.2 -0.5 62
2018-01-18 18:00:00 11.4 2 Noroeste 6 Oeste 0 919 -1.1 47
2018-01-18 17:00:00 14.3 3 Oeste 9 Noroeste 0 919.4 -1.8 38
2018-01-18 16:00:00 13.5 3 Sudoeste 8 Norte 0 919.7 -2.6 42
2018-01-18 15:00:00 11.9 2 Este 7 Sudeste 0 920.1 -3.2 45
2018-01-18 14:00:00 10.6 5 Sudoeste 8 Sudoeste 0 921.2 -2.4 50
2018-01-18 13:00:00 8.1 4 Sur 14 Sur 0 922.3 -1.5 62
2018-01-18 12:00:00 5.7 9 Sur 15 Sur 0 923.3 -0.2 70
2018-01-18 11:00:00 2.8 5 Sur 11 Sudeste 0 923.6 0.4 78
2018-01-18 10:00:00 0.4 5 Sudeste 10 Sudeste 0 923.8 0.7 87
2018-01-18 09:00:00 -2.3 4 Sudeste 16 Sudeste 0 923.5 0.7 91
2018-01-18 08:00:00 -2.2 13 Sudeste 17 Sudeste 0 923.2 0 93
2018-01-18 07:00:00 -3.4 9 Sur 13 Sur 0 923.1 -0.7 93
2018-01-18 06:00:00 -3 2 Sur 4 Sur 0 922.8 -1.5 93
2018-01-18 05:00:00 -2 0 Calma 13 Sudeste 0 923.2 -1.1 91
2018-01-18 04:00:00 -1.3 10 Sudeste 15 Sudeste 0 923.8 -0.9 92
2018-01-18 03:00:00 -1.7 8 Sudeste 12 Sudeste 0 924.3 -0.3 92
2018-01-18 02:00:00 -1.2 4 Sur 13 Sudeste 0 924.3 -0.6 93
2018-01-18 01:00:00 -0.9 5 Sur 12 Sudeste 0 924.7 0.1 92
2018-01-18 00:00:00 -0.8 4 Noroeste 8 Sudeste 0 924.6 0.6 92
2018-01-17 23:00:00 0.5 3 Oeste 8 Sudeste 0 924.9 0.9 89
2018-01-17 22:00:00 1.9 6 Sur 8 Sur 0 924.6 0.8 84
2018-01-17 21:00:00 3 4 Sudoeste 9 Norte 0 924 0.5 80
2018-01-17 20:00:00 4.4 6 Norte 20 Nordeste 0 924 0.8 75
2018-01-17 19:00:00 5.6 5 Norte 18 Nordeste 0 923.8 1.1 67
2018-01-17 18:00:00 7.7 8 Nordeste 19 Nordeste 0 923.5 1.1 60
2018-01-17 17:00:00 9.4 11 Norte 27 Norte 0 923.2 0.6 56
2018-01-17 16:00:00 10.4 10 Norte 28 Noroeste 0 922.7 -0.4 55
2018-01-17 15:00:00 10.7 11 Nordeste 38 Noroeste 0 922.4 -1 55
2018-01-17 14:00:00 11.9 13 Noroeste 35 Noroeste 0 922.6 -0.7 47
2018-01-17 13:00:00 11.3 15 Noroeste 31 Noroeste 0 923.1 0.4 54
2018-01-17 12:00:00 9.5 9 Norte 30 Noroeste 0 923.4 1.3 67
2018-01-17 11:00:00 8.9 12 Noroeste 26 Norte 0 923.3 1.4 74
2018-01-17 10:00:00 7.5 4 Noroeste 13 Noroeste 0 922.7 1.1 82
2018-01-17 09:00:00 7.1 5 Noroeste 11 Noroeste 0 922.1 0.6 81
2018-01-17 08:00:00 7.9 5 Noroeste 22 Oeste 0 921.9 0.1 79
2018-01-17 07:00:00 8.1 10 Noroeste 22 Noroeste 0 921.6 0 80
2018-01-17 06:00:00 7.3 10 Sudoeste 19 Sudoeste 0 921.5 -0.1 82
2018-01-17 05:00:00 7.9 7 Oeste 18 Noroeste 0 921.8 -0.3 81
2018-01-17 04:00:00 7.9 6 Noroeste 20 Noroeste 0 921.6 -1.4 80
2018-01-17 03:00:00 7.7 9 Oeste 17 Oeste 0 921.6 -1.4 82
2018-01-17 02:00:00 7.3 5 Sudeste 10 Sudeste 0 922.1 -0.7 84
2018-01-17 01:00:00 7.2 3 Oeste 10 Norte 0 923 0.2 85
2018-01-17 00:00:00 7.5 4 Sudoeste 14 Noroeste 0 923 0.6 83
2018-01-16 23:00:00 6.9 6 Noroeste 14 Noroeste 0 922.8 0.5 86
2018-01-16 22:00:00 5.3 4 Sur 12 Sudoeste 0 922.8 0.6 88
2018-01-16 21:00:00 6.9 4 Sudeste 11 Sudeste 0 922.4 0.3 86
2018-01-16 20:00:00 6 3 Sur 11 Noroeste 0 922.3 0.1 87
2018-01-16 19:00:00 7 4 Oeste 19 Nordeste 0 922.2 -0.1 84
2018-01-16 18:00:00 9.1 10 Nordeste 19 Norte 0 922.1 -0.2 80
2018-01-16 17:00:00 10.9 8 Norte 20 Noroeste 0 922.2 -0.8 72
2018-01-16 16:00:00 12.4 7 Noroeste 22 Noroeste 0 922.3 -1.8 65
2018-01-16 15:00:00 12.7 11 Noroeste 30 Noroeste 0 922.3 -2.6 66
2018-01-16 14:00:00 10.5 12 Noroeste 33 Noroeste 0 923 -2.1 74
2018-01-16 13:00:00 8.9 11 Noroeste 30 Noroeste 0 924.1 -0.7 78
2018-01-16 12:00:00 7 4 Sudeste 10 Sudeste 0 924.9 1 74
2018-01-16 11:00:00 4.6 0 Calma 5 Nordeste 0 925.1 1.5 81
2018-01-16 10:00:00 2.8 3 Sur 13 Oeste 0 924.8 1.8 84
2018-01-16 09:00:00 2.2 5 Sudeste 12 Oeste 0 923.9 0.9 85
2018-01-16 08:00:00 1.7 7 Sudeste 14 Noroeste 0 923.6 0.5 84
2018-01-16 07:00:00 3 6 Noroeste 18 Noroeste 0 923 -0.8 75
2018-01-16 06:00:00 1.4 5 Sur 10 Oeste 0 923 -0.4 84
2018-01-16 05:00:00 1.1 6 Sur 11 Sur 0 923.1 -0.9 85
2018-01-16 04:00:00 0.7 3 Sudoeste 12 Sudoeste 0 923.8 -0.4 85
2018-01-16 03:00:00 0.4 3 Oeste 9 Norte 0 923.4 -0.8 88
2018-01-16 02:00:00 1.2 2 Noroeste 7 Norte 0 924 0.3 85
2018-01-16 01:00:00 1.8 4 Nordeste 10 Noroeste 0 924.2 0.5 83
2018-01-16 00:00:00 1.6 2 Norte 6 Noroeste 0 924.2 1 81
2018-01-15 23:00:00 2.1 4 Este 7 Norte 0 923.7 1.1 80
2018-01-15 22:00:00 2.6 2 Este 8 Sudoeste 0 923.7 1.5 79
2018-01-15 21:00:00 2.9 5 Sudeste 8 Sudoeste 0 923.2 1.2 77
2018-01-15 20:00:00 3.9 4 Sudoeste 7 Sudoeste 0 922.6 1 73
2018-01-15 19:00:00 5.1 0 Calma 17 Oeste 0 922.2 0.9 67
2018-01-15 18:00:00 6.1 9 Oeste 18 Oeste 0 922 0.6 62
2018-01-15 17:00:00 6.6 4 Norte 15 Norte 0 921.6 -0.6 66
2018-01-15 16:00:00 8 9 Noroeste 22 Oeste 0 921.3 -1.6 62
2018-01-15 15:00:00 7.6 7 Noroeste 15 Oeste 0 921.4 -2.3 62
2018-01-15 14:00:00 6.3 5 Noroeste 14 Noroeste 0 922.2 -1.5 67
2018-01-15 13:00:00 4.1 5 Norte 18 Oeste 0 922.9 0 76
2018-01-15 12:00:00 3.2 3 Noroeste 6 Norte 0 923.7 1.9 83
2018-01-15 11:00:00 1.6 3 Norte 9 Noroeste 0 923.7 2.2 88
2018-01-15 10:00:00 0.8 5 Noroeste 10 Norte 0 922.9 2 92
2018-01-15 09:00:00 0 2 Norte 6 Nordeste 0 921.8 1.5 93
2018-01-15 08:00:00 0.5 3 Nordeste 13 Noroeste 0 921.5 1.5 93
2018-01-15 07:00:00 0.7 5 Norte 10 Norte 0 920.9 0.9 92
2018-01-15 06:00:00 0.9 2 Sur 5 Sudeste 0 920.3 0.8 93
2018-01-15 05:00:00 0.7 2 Nordeste 5 Nordeste 0 920 0.8 95
2018-01-15 04:00:00 0.8 0 Calma 5 Sur 0 920 0.5 95
2018-01-15 03:00:00 0.4 0 Calma 4 Norte 0 919.5 0.1 95
2018-01-15 02:00:00 0.6 0 Calma 3 Nordeste 0 919.2 0.3 93
2018-01-15 01:00:00 1 2 Noroeste 5 Noroeste 0 919.5 1.2 91
2018-01-15 00:00:00 1.7 2 Norte 4 Norte 0 919.4 1.5 91
2018-01-14 23:00:00 2 0 Calma 10 Norte 0 918.9 1.6 88
2018-01-14 22:00:00 2.6 4 Norte 15 Noroeste 0 918.3 1.8 86
2018-01-14 21:00:00 3.1 4 Norte 13 Norte 0 917.9 2.3 87
2018-01-14 20:00:00 3.4 4 Norte 11 Noroeste 0 917.3 2.3 86
2018-01-14 19:00:00 3.6 2 Norte 10 Norte 0 916.5 1.8 85
2018-01-14 18:00:00 4.1 4 Norte 17 Norte 0 915.6 1.1 80
2018-01-14 17:00:00 4.8 7 Norte 21 Norte 0 915 0.4 75
2018-01-14 16:00:00 5.5 6 Noroeste 19 Noroeste 0 914.7 -0.7 69
2018-01-14 15:00:00 5.9 6 Norte 21 Noroeste 0 914.5 -1.4 66
2018-01-14 14:00:00 6.3 10 Noroeste 24 Noroeste 0 914.6 -1.2 66
2018-01-14 13:00:00 4.1 7 Noroeste 19 Oeste 0 915.4 0.2 75
2018-01-14 12:00:00 3.5 8 Noroeste 21 Noroeste 0 915.9 1.1 79
2018-01-14 11:00:00 2.6 2 Noroeste 8 Noroeste 0 915.8 1.4 84
2018-01-14 10:00:00 2.2 4 Oeste 10 Noroeste 0 915.2 1.2 84
2018-01-14 09:00:00 1.6 4 Oeste 10 Noroeste 0 914.8 0.9 86
2018-01-14 08:00:00 1.7 3 Norte 13 Sudoeste 0 914.4 0.3 87
2018-01-14 07:00:00 1.6 2 Este 14 Noroeste 0 914 -0.1 89
2018-01-14 06:00:00 1.9 5 Noroeste 13 Norte 0 913.9 0.1 88
2018-01-14 05:00:00 2.1 5 Norte 12 Norte 0 914.1 0.7 86
2018-01-14 04:00:00 2.1 5 Norte 28 Noroeste 0 914.1 0.4 84
2018-01-14 03:00:00 2.5 9 Noroeste 30 Noroeste 0 913.8 -0.1 83
2018-01-14 02:00:00 2.7 13 Noroeste 30 Oeste 0 913.4 -0.4 84
2018-01-14 01:00:00 2.8 10 Oeste 26 Noroeste 0 913.7 0.2 85
2018-01-14 00:00:00 2.5 8 Oeste 16 Sudoeste 0 913.9 0.3 89
2018-01-13 23:00:00 2 6 Sudeste 10 Este 0 913.8 0.3 94
2018-01-13 22:00:00 2 3 Oeste 5 Sudoeste 0 913.5 0.8 92
2018-01-13 21:00:00 2.1 4 Sudoeste 23 Sudoeste 0.8 913.6 0.6 90
2018-01-13 20:00:00 3.7 10 Sur 22 Sudeste 0 913.5 0.5 81
2018-01-13 19:00:00 4.7 9 Sur 23 Sur 0 912.7 0.1 71
2018-01-13 18:00:00 5.9 4 Noroeste 14 Noroeste 0 913 -0.1 61
2018-01-13 17:00:00 6.7 5 Sudoeste 13 Oeste 0 913 -0.4 60
2018-01-13 16:00:00 6.5 4 Oeste 9 Oeste 0 912.6 -2.1 59
2018-01-13 15:00:00 6.2 2 Este 6 Oeste 0 913.1 -2.8 61
2018-01-13 14:00:00 5.6 3 Este 7 Sur 0 913.4 -2.9 68
2018-01-13 13:00:00 4.5 2 Sudeste 9 Oeste 0 914.7 -1.6 74
2018-01-13 12:00:00 3.2 4 Sudeste 9 Sudeste 0 915.9 -0.5 79
2018-01-13 11:00:00 2.1 6 Sudeste 12 Sudoeste 0 916.3 -0.3 80
2018-01-13 10:00:00 0.7 4 Sur 9 Sudeste 0 916.3 -0.1 86
2018-01-13 09:00:00 -0.5 9 Sudeste 13 Sudeste 0 916.4 -0.4 89
2018-01-13 08:00:00 -0.5 5 Sudeste 8 Sudeste 0 916.6 -0.7 90
2018-01-13 07:00:00 -0.3 2 Noroeste 17 Sudeste 0 916.4 -1.6 89
2018-01-13 06:00:00 0 12 Sudeste 17 Sudeste 0 916.8 -2.1 87
2018-01-13 05:00:00 -1.4 5 Sudeste 13 Este 0 917.3 -1.5 90
2018-01-13 04:00:00 -0.5 10 Este 17 Este 0 918 -1.6 89
2018-01-13 03:00:00 -1.6 5 Sudeste 9 Sudeste 0 918.9 -1.2 96
2018-01-13 02:00:00 -1.9 0 Calma 5 Sudeste 0 918.8 -1.3 94
2018-01-13 01:00:00 -1.4 0 Calma 11 Sudeste 0 919.6 -0.7 93
2018-01-13 00:00:00 -0.7 7 Sudeste 11 Sudeste 0 920.1 -0.4 92
2018-01-12 23:00:00 -0.5 3 Nordeste 8 Sudeste 0 920.1 -0.5 93
2018-01-12 22:00:00 0 4 Sur 7 Sudoeste 0 920.3 0 89
2018-01-12 21:00:00 0.3 0 Calma 6 Sur 0 920.5 0.5 87
2018-01-12 20:00:00 1.7 3 Sur 7 Nordeste 0 920.6 0.8 81
2018-01-12 19:00:00 3.4 4 Este 6 Este 0 920.3 0.3 74
2018-01-12 18:00:00 5.3 4 Norte 12 Noroeste 0 920 -0.3 68
2018-01-12 17:00:00 7.3 4 Noroeste 12 Noroeste 0 919.8 -0.9 63
2018-01-12 16:00:00 7.3 4 Noroeste 14 Norte 0 920 -1.3 63
2018-01-12 15:00:00 6.7 9 Noroeste 30 Noroeste 0 920.3 -1.3 66
2018-01-12 14:00:00 6.6 15 Noroeste 29 Noroeste 0 920.7 -1.1 67
2018-01-12 13:00:00 5.8 8 Noroeste 28 Noroeste 0 921.3 -0.7 75
2018-01-12 12:00:00 5.4 7 Oeste 17 Oeste 0 921.6 -0.2 78
2018-01-12 11:00:00 4.2 7 Noroeste 17 Noroeste 0 921.8 0.4 81
2018-01-12 10:00:00 3.1 8 Noroeste 16 Norte 0 922 0.8 85
2018-01-12 09:00:00 1.8 3 Noroeste 11 Noroeste 0 921.8 0.9 88
2018-01-12 08:00:00 1.6 6 Noroeste 11 Oeste 0 921.4 0.2 91
2018-01-12 07:00:00 1.2 3 Noroeste 7 Noroeste 0 921.2 -0.1 92
2018-01-12 06:00:00 1.7 4 Noroeste 15 Noroeste 0 920.9 0.1 90
2018-01-12 05:00:00 2.3 7 Noroeste 18 Noroeste 0 921.2 0.7 89
2018-01-12 04:00:00 2.3 7 Noroeste 17 Noroeste 0 921.3 0.9 89
2018-01-12 03:00:00 2.5 6 Noroeste 14 Noroeste 0 920.8 0.6 89
2018-01-12 02:00:00 2.4 4 Noroeste 13 Norte 0 920.5 0.6 89
2018-01-12 01:00:00 2.4 4 Norte 24 Noroeste 0 920.4 0.4 88
2018-01-12 00:00:00 2.4 6 Noroeste 33 Noroeste 0 920.2 0.4 89
2018-01-11 23:00:00 1.9 13 Noroeste 24 Noroeste 0.2 919.9 0.4 91
2018-01-11 22:00:00 1.2 3 Noroeste 10 Este 0.6 920 1.3 95
2018-01-11 21:00:00 1.2 5 Norte 25 Noroeste 0.8 919.8 1.9 93
2018-01-11 20:00:00 2.5 12 Noroeste 44 Noroeste 0.2 919.5 2.3 86
2018-01-11 19:00:00 4 24 Noroeste 42 Noroeste 0 918.7 1.6 71
2018-01-11 18:00:00 4.3 22 Noroeste 39 Oeste 0 917.9 1.1 64
2018-01-11 17:00:00 5.3 21 Noroeste 41 Noroeste 0 917.2 0.6 59
2018-01-11 16:00:00 5.8 20 Noroeste 43 Noroeste 0 917.1 0.6 56
2018-01-11 15:00:00 5.4 23 Noroeste 45 Noroeste 0 916.8 -0.3 60
2018-01-11 14:00:00 5.8 21 Noroeste 54 Noroeste 0 916.6 -0.6 59
2018-01-11 13:00:00 5.3 26 Noroeste 48 Noroeste 0 916.5 -0.4 63
2018-01-11 12:00:00 4.4 21 Noroeste 50 Noroeste 0 917.1 1.1 70
2018-01-11 11:00:00 3.4 20 Noroeste 47 Noroeste 0 917.2 1.5 73
2018-01-11 10:00:00 2.7 20 Noroeste 39 Oeste 0 916.9 1.6 71
2018-01-11 09:00:00 2.3 9 Noroeste 30 Noroeste 0 916 0.4 79
2018-01-11 08:00:00 2.5 11 Noroeste 30 Oeste 0 915.7 -0.1 78
2018-01-11 07:00:00 2.2 10 Oeste 24 Oeste 0 915.3 -0.9 80
2018-01-11 06:00:00 1.6 5 Norte 24 Oeste 0 915.6 -0.8 80
2018-01-11 05:00:00 1.5 4 Noroeste 21 Oeste 0 915.8 -0.5 79
2018-01-11 04:00:00 1.6 9 Noroeste 22 Oeste 0 916.2 0 79
2018-01-11 03:00:00 1.1 3 Noroeste 27 Noroeste 0 916.4 0.5 78
2018-01-11 02:00:00 2 13 Noroeste 27 Noroeste 0 916.3 1 74
2018-01-11 01:00:00 2.4 12 Noroeste 33 Noroeste 0 916.2 1.3 74
2018-01-11 00:00:00 3.2 19 Noroeste 49 Oeste 0 915.9 1.3 71
2018-01-10 23:00:00 3.2 17 Noroeste 33 Oeste 0 915.3 1.1 82
2018-01-10 22:00:00 3.4 9 Noroeste 29 Noroeste 0 914.9 0.8 87
2018-01-10 21:00:00 3.8 17 Noroeste 49 Noroeste 1.4 914.6 1.4 86
2018-01-10 20:00:00 5.4 14 Oeste 35 Oeste 0 914.2 0.1 79
2018-01-10 19:00:00 5.2 4 Noroeste 31 Oeste 0 914.1 -0.2 76
2018-01-10 18:00:00 6.5 15 Sudoeste 45 Sudoeste 0 913.2 -1.4 69
2018-01-10 17:00:00 6.4 18 Oeste 37 Oeste 0 914.1 -0.4 74
2018-01-10 16:00:00 6.5 12 Oeste 34 Oeste 0 914.3 -0.3 71
2018-01-10 15:00:00 6 17 Oeste 37 Oeste 0 914.6 -0.4 74
2018-01-10 14:00:00 6.4 9 Oeste 40 Oeste 0 914.5 -0.8 76
2018-01-10 13:00:00 8.3 16 Oeste 36 Oeste 0 914.6 -0.7 66
2018-01-10 12:00:00 6.7 12 Oeste 29 Oeste 0 915 0 79
2018-01-10 11:00:00 4.3 9 Sudeste 15 Sudeste 0 915.3 0.5 88
2018-01-10 10:00:00 3.6 4 Oeste 17 Noroeste 0 915.3 1.4 88
2018-01-10 09:00:00 3 6 Noroeste 13 Noroeste 0 915 1.1 93
2018-01-10 08:00:00 2.3 8 Este 10 Este 0 914.8 1.1 95
2018-01-10 07:00:00 2.1 3 Sur 7 Sudeste 0 913.9 -0.2 94
2018-01-10 06:00:00 1.9 0 Calma 7 Norte 0 913.9 -0.4 96
2018-01-10 05:00:00 2.5 3 Sur 6 Sur 0 913.7 -0.7 93
2018-01-10 04:00:00 2.4 0 Calma 5 Sudeste 0 914.1 -0.7 93
2018-01-10 03:00:00 2.3 2 Este 5 Nordeste 0 914.3 -0.7 94
2018-01-10 02:00:00 2.3 0 Calma 5 Nordeste 0 914.4 -0.6 93
2018-01-10 01:00:00 2.4 4 Norte 8 Sur 0.2 914.8 0 92
2018-01-10 00:00:00 2.5 4 Sudeste 7 Sudeste 0.2 915 -0.1 89
2018-01-09 23:00:00 2.7 3 Sudeste 9 Sudeste 0 915 0.2 81
2018-01-09 22:00:00 3 6 Sudeste 12 Sudeste 0 914.8 0.3 75
2018-01-09 21:00:00 3.4 2 Sudeste 10 Sudeste 0 915.1 0.3 72
2018-01-09 20:00:00 3 6 Sudeste 15 Sudeste 0 914.8 0 75
2018-01-09 19:00:00 3.3 10 Sudeste 17 Sudeste 0 914.5 0.1 73
2018-01-09 18:00:00 3.1 8 Este 42 Oeste 0 914.8 0.7 76
2018-01-09 17:00:00 4.8 12 Oeste 26 Oeste 0 914.8 0.6 56
2018-01-09 16:00:00 5.3 14 Sudoeste 28 Sudoeste 0 914.4 -0.3 54
2018-01-09 15:00:00 5.4 6 Sudoeste 14 Sudoeste 0 914.1 -1 59
2018-01-09 14:00:00 4.8 10 Sudoeste 17 Sudoeste 0 914.2 -0.8 60
2018-01-09 13:00:00 4.5 8 Sur 12 Sudoeste 0 914.7 0 65
2018-01-09 12:00:00 1.9 7 Sur 16 Sur 0 915.1 0.7 79
2018-01-09 11:00:00 0.7 9 Sur 15 Sudoeste 0 915 1.2 82
2018-01-09 10:00:00 -0.6 9 Sur 17 Sudeste 0 914.7 1 90
2018-01-09 09:00:00 -5.5 3 Sur 9 Sur 0 914.4 0.9 93
2018-01-09 08:00:00 -5.9 5 Sudeste 6 Sur 0 913.8 0.7 94
2018-01-09 07:00:00 -6.2 0 Calma 4 Sur 0 913.7 0.8 92
2018-01-09 06:00:00 -5.5 0 Calma 6 Este 0 913.5 0.8 93
2018-01-09 05:00:00 -5.1 2 Oeste 6 Nordeste 0 913.1 0.5 93
2018-01-09 04:00:00 -4.5 0 Calma 7 Sur 0 912.9 0.2 92
2018-01-09 03:00:00 -4 2 Sudeste 9 Este 0 912.7 0.4 93
2018-01-09 02:00:00 -3.4 3 Oeste 8 Sudeste 0 912.6 0.6 93
2018-01-09 01:00:00 -3.4 3 Este 6 Norte 0 912.7 0.8 92
2018-01-09 00:00:00 -2.1 4 Sur 11 Sudeste 0 912.3 0.8 90
2018-01-08 23:00:00 -1.8 6 Sudeste 10 Sudeste 0 912 1 91
2018-01-08 22:00:00 -1.5 2 Norte 8 Nordeste 0 911.9 1.7 90
2018-01-08 21:00:00 -0.8 3 Oeste 7 Sudeste 0 911.5 1.4 86
2018-01-08 20:00:00 0.2 3 Sur 7 Sur 0 911 1.4 84
2018-01-08 19:00:00 2.1 3 Norte 8 Norte 0 910.2 1.2 76
2018-01-08 18:00:00 4.2 3 Noroeste 13 Norte 0 910.1 1.5 68
2018-01-08 17:00:00 6.1 6 Norte 14 Norte 0 909.6 0.8 62
2018-01-08 16:00:00 8.1 5 Noroeste 13 Noroeste 0 909 -0.1 51
2018-01-08 15:00:00 8.1 4 Noroeste 12 Oeste 0 908.6 -1.1 52
2018-01-08 14:00:00 6.7 4 Noroeste 11 Noroeste 0 908.8 -1.1 58
2018-01-08 13:00:00 4 6 Norte 10 Nordeste 0 909.1 -0.1 71
2018-01-08 12:00:00 2.4 2 Oeste 8 Sudeste 0 909.7 0.9 77
2018-01-08 11:00:00 -0.6 2 Noroeste 5 Noroeste 0 909.9 1.4 87
2018-01-08 10:00:00 -2.4 3 Sudeste 7 Sudeste 0 909.2 1 93
2018-01-08 09:00:00 -5 2 Sur 6 Sur 0 908.8 1 95
2018-01-08 08:00:00 -5.1 2 Noroeste 6 Nordeste 0 908.5 1.1 94
2018-01-08 07:00:00 -4.6 3 Noroeste 5 Noroeste 0 908.2 1 94
2018-01-08 06:00:00 -4.1 3 Noroeste 6 Sur 0 907.8 1 93
2018-01-08 05:00:00 -4 0 Calma 4 Nordeste 0 907.4 1.1 94
2018-01-08 04:00:00 -3.8 3 Nordeste 4 Nordeste 0 907.2 1.4 95
2018-01-08 03:00:00 -3.7 0 Calma 4 Sur 0 906.8 1.3 94
2018-01-08 02:00:00 -3.4 2 Nordeste 6 Este 0 906.3 0.8 93
2018-01-08 01:00:00 -2.9 0 Calma 5 Norte 0 905.8 0.6 94
2018-01-08 00:00:00 -2.5 4 Norte 6 Norte 0 905.5 0.5 92
2018-01-07 23:00:00 -1.9 2 Sudoeste 6 Noroeste 0 905.5 1.1 91
2018-01-07 22:00:00 -1.4 0 Calma 6 Nordeste 0 905.2 1.5 88
2018-01-07 21:00:00 0.1 3 Sudeste 10 Sur 0 905 1.9 82
2018-01-07 20:00:00 0.8 7 Sur 14 Sur 0 904.4 2 80
2018-01-07 19:00:00 1.8 8 Sur 17 Sudoeste 0 903.7 2.3 77
2018-01-07 18:00:00 4.1 10 Sudoeste 25 Sur 0 903.1 2.6 61
2018-01-07 17:00:00 5.7 12 Sur 23 Sur 0 902.4 2.2 59
2018-01-07 16:00:00 6.2 9 Sur 28 Sur 0 901.4 1.4 62
2018-01-07 15:00:00 6.3 15 Sur 24 Sudoeste 0 900.5 1.1 65
2018-01-07 14:00:00 6.3 16 Sur 30 Sur 0 900.2 1.3 64
2018-01-07 13:00:00 5.4 15 Sur 26 Sur 0 900 1.8 76
2018-01-07 12:00:00 4.2 3 Sur 10 Oeste 0 899.4 1.8 87
2018-01-07 11:00:00 2.1 2 Sudoeste 14 Este 0 898.9 1.9 93
2018-01-07 10:00:00 0.9 4 Noroeste 7 Noroeste 0 898.2 2.1 97
2018-01-07 09:00:00 0.5 0 Calma 6 Noroeste 0.2 897.6 2 97
2018-01-07 08:00:00 0.3 3 Noroeste 9 Norte 0 897 1.2 96
2018-01-07 07:00:00 0.1 4 Noroeste 10 Noroeste 0 896.1 0.2 96
2018-01-07 06:00:00 0.1 4 Noroeste 11 Noroeste 0 895.6 -0.5 96
2018-01-07 05:00:00 -0.1 4 Noroeste 15 Norte 0 895.8 0.3 96
2018-01-07 04:00:00 -0.1 6 Norte 14 Norte 0 895.9 0.4 96
2018-01-07 03:00:00 0 6 Norte 14 Norte 0 896.1 0.6 96
2018-01-07 02:00:00 0.1 4 Noroeste 14 Noroeste 0 895.5 0.4 95
2018-01-07 01:00:00 0.4 6 Noroeste 13 Norte 0 895.5 0 95
2018-01-07 00:00:00 0.4 5 Norte 11 Noroeste 0 895.5 -0.1 95
2018-01-06 23:00:00 0.3 4 Norte 11 Noroeste 0.4 895.1 0 96
2018-01-06 22:00:00 0.5 4 Noroeste 13 Noroeste 3.2 895.5 0.5 96
2018-01-06 21:00:00 1.7 6 Norte 15 Norte 0.8 895.6 0.4 91
2018-01-06 20:00:00 2.7 6 Norte 19 Norte 0 895.1 -0.3 92
2018-01-06 19:00:00 3.6 9 Noroeste 20 Noroeste 0 895 -0.8 88
2018-01-06 18:00:00 5.4 11 Nordeste 26 Este 0 895.2 -0.6 84
2018-01-06 17:00:00 5.8 21 Este 38 Este 0 895.4 -1.3 85
2018-01-06 16:00:00 6.8 14 Este 33 Este 0 895.8 -1.6 77
2018-01-06 15:00:00 5.6 8 Noroeste 17 Norte 0 895.8 -2.9 86
2018-01-06 14:00:00 5.3 7 Norte 19 Noroeste 0 896.7 -2.4 87
2018-01-06 13:00:00 5.3 8 Noroeste 18 Noroeste 0 897.4 -1.3 86
2018-01-06 12:00:00 3.9 7 Norte 15 Norte 0 898.7 -0.3 92
2018-01-06 11:00:00 3.7 7 Norte 12 Norte 0 899.1 -0.1 93
2018-01-06 10:00:00 3.3 5 Norte 12 Norte 0 898.7 -0.9 95
2018-01-06 09:00:00 2.9 4 Noroeste 6 Norte 0 899 -0.8 95
2018-01-06 08:00:00 3 2 Noroeste 9 Norte 0 899.2 0.1 92
2018-01-06 07:00:00 3.3 5 Norte 17 Nordeste 0.2 899.6 -0.6 91
2018-01-06 06:00:00 5.5 10 Noroeste 27 Noroeste 0 899.8 -1.3 82
2018-01-06 05:00:00 8.1 13 Sur 28 Sur 0 899.1 -2.8 74
2018-01-06 04:00:00 7.6 8 Sur 28 Sur 0 900.2 -2.9 77
2018-01-06 03:00:00 6.9 13 Sur 23 Sudeste 0 901.1 -3.1 78
2018-01-06 02:00:00 8.1 17 Sur 29 Sudeste 0 901.9 -2.9 71
2018-01-06 01:00:00 8.2 23 Sudeste 32 Sudeste 0 903.1 -2.3 71
2018-01-06 00:00:00 8.1 13 Sur 23 Sur 0 904.2 -1.5 71
2018-01-05 23:00:00 6.6 6 Sudeste 17 Este 0 904.8 -1.1 75
2018-01-05 22:00:00 6 5 Este 12 Sudeste 0 905.4 -1 76
2018-01-05 21:00:00 6.7 6 Sur 12 Sudoeste 0 905.7 -1.2 73
2018-01-05 20:00:00 7.1 4 Sudeste 14 Sudeste 0 905.9 -1 71
2018-01-05 19:00:00 8.3 6 Sudeste 22 Sudeste 0 906.4 -1.2 65
2018-01-05 18:00:00 9.6 18 Este 37 Oeste 0 906.9 -1.2 62
2018-01-05 17:00:00 10.5 15 Sudoeste 35 Sudoeste 0 906.9 -2.7 58
2018-01-05 16:00:00 12.3 14 Oeste 34 Sudoeste 0 907.6 -2.8 52
2018-01-05 15:00:00 12.1 19 Sudoeste 39 Oeste 0 908.1 -3.5 51
2018-01-05 14:00:00 11.2 23 Oeste 47 Oeste 0 909.6 -2.5 54
2018-01-05 13:00:00 11.5 24 Oeste 43 Oeste 0 910.4 -2.2 51
2018-01-05 12:00:00 11 17 Oeste 34 Oeste 0 911.6 -1 57
2018-01-05 11:00:00 10.3 10 Sudoeste 21 Oeste 0 912.1 -1 61
2018-01-05 10:00:00 9.1 12 Oeste 42 Oeste 0 912.6 -0.4 66
2018-01-05 09:00:00 8.4 16 Oeste 32 Oeste 0 912.6 -1 69
2018-01-05 08:00:00 7.7 8 Sudeste 20 Sudeste 0 913.1 -1.3 72
2018-01-05 07:00:00 7.8 12 Sudoeste 20 Sudoeste 0 913 -1.8 74
2018-01-05 06:00:00 6 7 Sur 18 Sur 0 913.6 -2.3 80
2018-01-05 05:00:00 6.5 10 Sur 19 Sudoeste 0 914.4 -2.8 77
2018-01-05 04:00:00 9 4 Oeste 22 Sudoeste 0 914.8 -3.3 75
2018-01-05 03:00:00 8.6 4 Oeste 15 Oeste 0 915.9 -3 77
2018-01-05 02:00:00 8.3 9 Oeste 18 Oeste 0 917.2 -2.4 77
2018-01-05 01:00:00 8.5 5 Oeste 16 Oeste 0 918.1 -1.8 78
2018-01-05 00:00:00 9.3 5 Oeste 20 Oeste 0 918.9 -1.7 76
2018-01-04 23:00:00 10 11 Oeste 18 Oeste 0 919.6 -0.8 74
2018-01-04 22:00:00 10.4 6 Oeste 21 Oeste 0 919.9 -1.1 73
2018-01-04 21:00:00 10.4 6 Sudoeste 14 Sudoeste 0 920.6 -0.1 72
2018-01-04 20:00:00 10.6 8 Oeste 20 Oeste 0 920.4 -0.5 70
2018-01-04 19:00:00 10.6 13 Oeste 28 Oeste 0 921 0.1 69
2018-01-04 18:00:00 11.1 12 Oeste 30 Oeste 0 920.7 -1 68
2018-01-04 17:00:00 12.5 12 Oeste 32 Oeste 0 920.9 -1.4 62
2018-01-04 16:00:00 13.3 14 Noroeste 30 Oeste 0 920.9 -2.3 62
2018-01-04 15:00:00 13 13 Noroeste 31 Noroeste 0 921.7 -2.3 65
2018-01-04 14:00:00 12.4 15 Noroeste 32 Noroeste 0 922.3 -2.2 67
2018-01-04 13:00:00 12.5 11 Noroeste 31 Noroeste 0 923.2 -1.5 66
2018-01-04 12:00:00 13.3 11 Oeste 26 Noroeste 0 924 -0.2 65
2018-01-04 11:00:00 12.1 14 Oeste 27 Oeste 0 924.5 0.3 70
2018-01-04 10:00:00 9.9 8 Sudoeste 13 Sudoeste 0 924.7 0.3 81
2018-01-04 09:00:00 9.9 3 Sur 8 Sudoeste 0 924.2 -0.3 84
2018-01-04 08:00:00 10 0 Calma 10 Noroeste 0 924.2 -0.4 84
2018-01-04 07:00:00 10.1 4 Oeste 12 Oeste 0 924.4 -1.1 83
2018-01-04 06:00:00 10 3 Norte 11 Norte 0 924.5 -1.1 83
2018-01-04 05:00:00 10.4 5 Norte 19 Norte 0 924.6 -1.3 82
2018-01-04 04:00:00 10.8 7 Noroeste 18 Noroeste 0 925.5 -0.5 81
2018-01-04 03:00:00 11.1 5 Noroeste 18 Oeste 0 925.6 -0.7 80
2018-01-04 02:00:00 11.5 5 Oeste 23 Noroeste 0 925.9 -0.6 80
2018-01-04 01:00:00 11.6 8 Sudoeste 16 Oeste 0 926 -0.7 80
2018-01-04 00:00:00 11.3 3 Sudoeste 17 Oeste 0 926.3 -0.2 82
2018-01-03 23:00:00 11 3 Norte 14 Noroeste 0 926.5 0 83
2018-01-03 22:00:00 10.7 3 Noroeste 11 Norte 0 926.7 0.4 83
2018-01-03 21:00:00 11.1 7 Oeste 15 Oeste 0 926.5 -0.1 81
2018-01-03 20:00:00 11.2 6 Oeste 36 Oeste 0 926.5 -0.2 80
2018-01-03 19:00:00 11.3 11 Oeste 23 Oeste 0 926.3 0 79
2018-01-03 18:00:00 12.2 10 Oeste 24 Oeste 0 926.6 0.2 75
2018-01-03 17:00:00 13.1 7 Oeste 25 Oeste 0 926.7 -0.3 71
2018-01-03 16:00:00 14.6 12 Oeste 34 Noroeste 0 926.3 -1.8 66
2018-01-03 15:00:00 13.7 10 Oeste 24 Oeste 0 926.4 -2.2 68
2018-01-03 14:00:00 13.5 10 Oeste 24 Oeste 0 927 -1.8 69
2018-01-03 13:00:00 13.2 10 Oeste 23 Oeste 0 928.1 -0.2 69
2018-01-03 12:00:00 11.7 8 Oeste 24 Noroeste 0 928.6 0.5 75
2018-01-03 11:00:00 10.2 13 Noroeste 25 Noroeste 0 928.8 0.4 81
2018-01-03 10:00:00 8.9 7 Oeste 17 Noroeste 0 928.3 0.6 85
2018-01-03 09:00:00 9 4 Sudoeste 13 Oeste 0 928.1 0.7 84
2018-01-03 08:00:00 9.2 3 Sudoeste 23 Oeste 0 928.4 1 83
2018-01-03 07:00:00 9.5 8 Oeste 32 Noroeste 0 927.7 0.1 83
2018-01-03 06:00:00 8.9 10 Noroeste 25 Noroeste 0 927.4 -0.1 85
2018-01-03 05:00:00 9.2 6 Noroeste 17 Noroeste 0 927.4 0.1 82
2018-01-03 04:00:00 9.7 3 Oeste 16 Noroeste 0 927.6 -0.2 80
2018-01-03 03:00:00 9.9 10 Noroeste 21 Noroeste 0 927.5 -0.5 79
2018-01-03 02:00:00 10 8 Sudoeste 15 Oeste 0 927.3 -0.8 78
2018-01-03 01:00:00 10 3 Norte 17 Oeste 0 927.8 0 78
2018-01-03 00:00:00 9.9 3 Sudoeste 21 Oeste 0 928 0 78
2018-01-02 23:00:00 9.9 10 Oeste 21 Oeste 0 928.1 0.5 76
2018-01-02 22:00:00 10.1 6 Oeste 11 Sudoeste 0 927.8 0.6 76
2018-01-02 21:00:00 10.2 4 Oeste 21 Oeste 0 928 1.3 74
2018-01-02 20:00:00 10.4 10 Oeste 21 Sudoeste 0 927.6 0.9 72
2018-01-02 19:00:00 10.7 7 Oeste 24 Sudoeste 0 927.2 0.6 70
2018-01-02 18:00:00 11 10 Oeste 29 Oeste 0 926.7 0.6 69
2018-01-02 17:00:00 12.2 13 Oeste 33 Noroeste 0 926.7 0.3 62
2018-01-02 16:00:00 12.8 18 Noroeste 45 Oeste 0 926.6 -0.6 61
2018-01-02 15:00:00 13.1 14 Noroeste 36 Noroeste 0 926.1 -1.4 60
2018-01-02 14:00:00 13.5 19 Noroeste 45 Noroeste 0 926.4 -1.2 58
2018-01-02 13:00:00 12.4 18 Noroeste 39 Noroeste 0 927.2 0.2 59
2018-01-02 12:00:00 10.6 18 Noroeste 37 Noroeste 0 927.5 1 63
2018-01-02 11:00:00 8.7 17 Noroeste 30 Noroeste 0 927.6 1.5 69
2018-01-02 10:00:00 7.1 8 Noroeste 23 Noroeste 0 927 1.3 72
2018-01-02 09:00:00 6.3 6 Norte 14 Norte 0 926.5 1 76
2018-01-02 08:00:00 7.1 4 Este 21 Oeste 0 926.1 0.8 75
2018-01-02 07:00:00 7.4 9 Noroeste 27 Oeste 0 925.7 0 75
2018-01-02 06:00:00 7.7 14 Noroeste 32 Oeste 0 925.5 -0.3 77
2018-01-02 05:00:00 7.9 17 Noroeste 41 Oeste 0 925.3 -0.6 77
2018-01-02 04:00:00 7.7 13 Noroeste 26 Noroeste 0 925.7 -0.3 79
2018-01-02 03:00:00 7.5 5 Oeste 15 Noroeste 0 925.8 -0.2 79
2018-01-02 02:00:00 7.4 3 Noroeste 13 Este 0 925.9 -0.3 79
2018-01-02 01:00:00 7.5 5 Noroeste 22 Noroeste 0 926 0.2 78
2018-01-02 00:00:00 7.4 7 Noroeste 32 Noroeste 0 926 0.5 77
2018-01-01 23:00:00 7.8 15 Noroeste 35 Oeste 0 926.2 0.5 75
2018-01-01 22:00:00 7.9 13 Noroeste 30 Oeste 0 925.8 0.5 72
2018-01-01 21:00:00 7.9 14 Oeste 33 Oeste 0 925.5 1 71
2018-01-01 20:00:00 7.8 9 Oeste 30 Oeste 0 925.7 1.4 66
2018-01-01 19:00:00 7.6 9 Oeste 26 Oeste 0 925.3 0.9 61
2018-01-01 18:00:00 8 9 Sudoeste 35 Oeste 0 924.5 0 57
2018-01-01 17:00:00 9.9 15 Oeste 37 Noroeste 0 924.3 -0.7 48
2018-01-01 16:00:00 10.8 17 Oeste 42 Sudoeste 0 924.4 -1.4 41
2018-01-01 15:00:00 9.5 14 Oeste 42 Oeste 0 924.5 -2.1 39
2018-01-01 14:00:00 10 19 Oeste 35 Oeste 0 925 -2.4 35
2018-01-01 13:00:00 9.8 16 Oeste 31 Noroeste 0 925.8 -2.1 36
2018-01-01 12:00:00 7.8 8 Sudoeste 25 Sudoeste 0 926.6 -1.1 46
2018-01-01 11:00:00 5.4 11 Sudoeste 20 Sudoeste 0 927.4 0.3 56
2018-01-01 10:00:00 2.7 4 Sur 11 Sur 0 927.9 0.7 70
2018-01-01 09:00:00 0.2 4 Sudoeste 10 Noroeste 0 927.7 0.9 78
2018-01-01 08:00:00 -0.1 4 Este 9 Sudeste 0 927.1 0.2 79
2018-01-01 07:00:00 0.2 5 Noroeste 11 Este 0 927.2 1.1 77
2018-01-01 06:00:00 0.2 4 Sudeste 9 Sudeste 0 926.8 1.2 79
2018-01-01 05:00:00 1.8 6 Sur 24 Noroeste 0 926.9 1.7 71
2018-01-01 04:00:00 3.2 15 Noroeste 27 Noroeste 0 926.1 1.4 68
2018-01-01 03:00:00 3 6 Norte 24 Noroeste 0 925.6 1.4 67
2018-01-01 02:00:00 2.6 5 Norte 19 Noroeste 0 925.2 2.2 68
2018-01-01 01:00:00 3.3 11 Noroeste 42 Noroeste 0 924.7 2.4 64
2018-01-01 00:00:00 4 14 Noroeste 40 Noroeste 0 924.2 2.8 63
2017-12-31 23:00:00 5.2 12 Noroeste 32 Noroeste 0 923 2.7 70
2017-12-31 22:00:00 6.2 16 Noroeste 37 Oeste 0 922.3 4.2 76
2017-12-31 21:00:00 6.5 19 Noroeste 42 Oeste 0 921.4 3.7 78
2017-12-31 20:00:00 6.6 16 Noroeste 43 Noroeste 1 920.3 2.4 83
2017-12-31 19:00:00 9.3 18 Oeste 47 Sudoeste 0 918.1 -0.5 72
2017-12-31 18:00:00 9.5 21 Sudoeste 45 Oeste 0 917.7 -0.1 65
2017-12-31 17:00:00 10.1 17 Oeste 43 Oeste 0 917.9 -0.1 62
2017-12-31 16:00:00 11.4 17 Oeste 42 Oeste 0 918.6 -0.8 57
2017-12-31 15:00:00 11.2 14 Oeste 26 Oeste 0 917.8 -2.6 57
2017-12-31 14:00:00 9.8 11 Oeste 20 Oeste 0 918 -3.1 66
2017-12-31 13:00:00 4.3 10 Sudeste 17 Sudeste 0 919.4 -2 88
2017-12-31 12:00:00 2 10 Sudeste 14 Sur 0 920.4 -1 93
2017-12-31 11:00:00 0.4 4 Sur 8 Sur 0 921.1 0.1 95
2017-12-31 10:00:00 -0.5 5 Sur 9 Sudoeste 0 921.4 0.5 95
2017-12-31 09:00:00 -1.2 6 Sur 9 Sur 0 921.4 -0.1 95
2017-12-31 08:00:00 -0.8 8 Sudeste 14 Sudeste 0 921 -1.4 96
2017-12-31 07:00:00 -1.5 10 Sudeste 14 Sudeste 0 920.9 -2.3 97
2017-12-31 06:00:00 -1.6 0 Calma 11 Sudeste 0 921.5 -2.2 95
2017-12-31 05:00:00 -1.6 3 Este 7 Sudoeste 0 922.4 -1.6 95
2017-12-31 04:00:00 -1.2 3 Norte 8 Sudoeste 0 923.2 -1.5 94
2017-12-31 03:00:00 -0.1 5 Sur 10 Sudeste 0 923.7 -1.2 95
2017-12-31 02:00:00 0.7 0 Calma 9 Sudeste 0 924 -0.5 92
2017-12-31 01:00:00 2.1 5 Sudeste 9 Sudeste 0 924.7 0 94